createdAt,value
2017-11-14T00:00:25.746Z,10.98
2017-11-14T00:02:54.082Z,15.00
2017-11-14T00:05:21.617Z,14.35
2017-11-14T00:07:49.194Z,13.27
2017-11-14T00:10:22.347Z,13.40
2017-11-14T00:12:50.647Z,15.35
2017-11-14T00:15:18.183Z,14.75
2017-11-14T00:17:46.521Z,14.05
2017-11-14T00:20:14.055Z,13.90
2017-11-14T00:22:41.631Z,15.30
2017-11-14T00:25:09.175Z,16.37
2017-11-14T00:27:36.829Z,13.43
2017-11-14T00:30:04.363Z,15.73
2017-11-14T00:32:32.743Z,15.50
2017-11-14T00:35:01.042Z,15.30
2017-11-14T00:37:28.831Z,15.10
2017-11-14T00:39:56.401Z,17.33
2017-11-14T00:42:23.979Z,16.12
2017-11-14T00:44:56.738Z,14.27
2017-11-14T00:47:24.278Z,15.30
2017-11-14T00:49:51.862Z,14.00
2017-11-14T00:52:19.399Z,14.35
2017-11-14T00:54:46.976Z,16.02
2017-11-14T00:57:14.516Z,16.77
2017-11-14T00:59:42.087Z,16.90
2017-11-14T01:02:09.623Z,18.40
2017-11-14T01:04:37.512Z,16.87
2017-11-14T01:07:05.046Z,16.95
2017-11-14T01:09:32.665Z,16.98
2017-11-14T01:12:00.206Z,19.23
2017-11-14T01:14:27.751Z,19.67
2017-11-14T01:16:55.328Z,19.52
2017-11-14T01:19:22.870Z,18.42
2017-11-14T01:21:50.696Z,19.77
2017-11-14T01:24:19.045Z,20.30
2017-11-14T01:26:46.586Z,18.50
2017-11-14T01:29:14.165Z,18.20
2017-11-14T01:31:45.424Z,19.20
2017-11-14T01:34:13.734Z,19.20
2017-11-14T01:36:41.267Z,20.17
2017-11-14T01:39:13.392Z,19.87
2017-11-14T01:41:40.938Z,18.10
2017-11-14T01:44:08.522Z,19.42
2017-11-14T01:46:36.071Z,19.87
2017-11-14T01:49:03.646Z,18.92
2017-11-14T01:51:31.181Z,18.90
2017-11-14T01:53:58.758Z,21.23
2017-11-14T01:56:26.295Z,22.95
2017-11-14T01:58:54.694Z,23.90
2017-11-14T02:01:22.238Z,21.75
2017-11-14T02:03:49.817Z,20.70
2017-11-14T02:06:17.397Z,20.70
2017-11-14T02:08:44.989Z,22.60
2017-11-14T02:11:13.293Z,22.85
2017-11-14T02:13:40.874Z,20.95
2017-11-14T02:16:08.429Z,20.12
2017-11-14T02:18:36.062Z,21.25
2017-11-14T02:21:03.605Z,16.52
2017-11-14T02:23:31.941Z,16.23
2017-11-14T02:26:01.354Z,15.63
2017-11-14T02:28:28.934Z,18.75
2017-11-14T02:30:57.246Z,19.17
2017-11-14T02:33:24.831Z,20.40
2017-11-14T02:35:52.475Z,18.42
2017-11-14T02:38:20.053Z,18.77
2017-11-14T02:40:47.590Z,17.62
2017-11-14T02:43:15.165Z,16.83
2017-11-14T02:45:42.706Z,18.00
2017-11-14T02:48:10.280Z,16.27
2017-11-14T02:50:38.577Z,17.37
2017-11-14T02:53:06.150Z,24.25
2017-11-14T02:55:33.697Z,22.45
2017-11-14T02:58:01.285Z,19.15
2017-11-14T03:00:29.633Z,20.27
2017-11-14T03:02:57.206Z,17.55
2017-11-14T03:05:24.745Z,16.35
2017-11-14T03:07:52.429Z,17.02
2017-11-14T03:10:19.962Z,15.13
2017-11-14T03:12:47.499Z,16.10
2017-11-14T03:15:15.095Z,15.02
2017-11-14T03:17:42.681Z,15.57
2017-11-14T03:20:10.214Z,16.52
2017-11-14T03:22:37.757Z,15.18
2017-11-14T03:25:05.842Z,18.02
2017-11-14T03:27:33.382Z,16.73
2017-11-14T03:30:00.927Z,21.00
2017-11-14T03:32:28.520Z,21.55
2017-11-14T03:34:56.053Z,20.27
2017-11-14T03:37:23.754Z,17.08
2017-11-14T03:39:51.295Z,19.95
2017-11-14T03:42:18.902Z,20.45
2017-11-14T03:44:47.230Z,23.15
2017-11-14T03:47:14.769Z,23.02
2017-11-14T03:49:42.344Z,19.50
2017-11-14T03:52:09.880Z,19.65
2017-11-14T03:54:37.483Z,20.42
2017-11-14T03:57:05.202Z,19.83
2017-11-14T03:59:33.502Z,20.50
2017-11-14T04:02:01.679Z,20.45
2017-11-14T04:04:29.221Z,19.30
2017-11-14T04:06:56.823Z,20.27
2017-11-14T04:09:24.374Z,22.08
2017-11-14T04:11:51.910Z,21.05
2017-11-14T04:14:22.245Z,22.90
2017-11-14T04:16:49.782Z,19.73
2017-11-14T04:19:17.387Z,19.75
2017-11-14T04:21:44.944Z,18.85
2017-11-14T04:24:12.490Z,18.90
2017-11-14T04:26:40.070Z,17.48
2017-11-14T04:29:07.602Z,18.30
2017-11-14T04:31:35.490Z,19.55
2017-11-14T04:34:03.031Z,21.20
2017-11-14T04:36:30.584Z,21.48
2017-11-14T04:38:58.167Z,22.50
2017-11-14T04:41:27.250Z,22.48
2017-11-14T04:43:54.904Z,22.60
2017-11-14T04:46:22.446Z,20.73
2017-11-14T04:48:51.297Z,21.10
2017-11-14T04:51:18.842Z,22.50
2017-11-14T04:53:46.383Z,21.55
2017-11-14T04:56:14.086Z,25.05
2017-11-14T04:58:41.677Z,25.75
2017-11-14T05:01:09.218Z,24.00
2017-11-14T05:03:37.566Z,31.42
2017-11-14T05:06:05.131Z,26.10
2017-11-14T05:08:32.665Z,26.87
2017-11-14T05:13:32.859Z,30.83
2017-11-14T05:16:06.106Z,40.20
2017-11-14T05:18:33.681Z,24.63
2017-11-14T05:21:01.221Z,24.55
2017-11-14T05:23:28.800Z,31.30
2017-11-14T05:25:56.678Z,29.23
2017-11-14T05:28:24.218Z,35.40
2017-11-14T05:30:51.794Z,33.05
2017-11-14T05:33:19.335Z,32.60
2017-11-14T05:35:46.919Z,33.40
2017-11-14T05:38:14.457Z,23.05
2017-11-14T05:40:42.757Z,25.20
2017-11-14T05:43:10.295Z,29.05
2017-11-14T05:45:37.838Z,30.30
2017-11-14T05:48:05.416Z,25.00
2017-11-14T05:50:32.958Z,26.45
2017-11-14T05:53:01.369Z,27.35
2017-11-14T05:55:28.934Z,26.58
2017-11-14T05:57:57.339Z,26.23
2017-11-14T06:00:25.981Z,31.33
2017-11-14T06:02:53.519Z,29.30
2017-11-14T06:05:21.094Z,21.98
2017-11-14T06:07:48.679Z,27.10
2017-11-14T06:10:16.273Z,25.33
2017-11-14T06:12:43.824Z,25.75
2017-11-14T06:15:12.127Z,25.27
2017-11-14T06:17:39.872Z,24.23
2017-11-14T06:20:07.424Z,23.85
2017-11-14T06:22:35.731Z,28.05
2017-11-14T06:25:03.316Z,30.35
2017-11-14T06:27:30.895Z,29.20
2017-11-14T06:29:58.435Z,25.98
2017-11-14T06:32:26.014Z,24.27
2017-11-14T06:34:57.264Z,28.10
2017-11-14T06:37:24.806Z,26.35
2017-11-14T06:39:52.382Z,25.67
2017-11-14T06:42:20.146Z,29.98
2017-11-14T06:44:47.726Z,29.15
2017-11-14T06:47:16.035Z,27.60
2017-11-14T06:49:43.675Z,47.90
2017-11-14T06:52:12.017Z,35.10
2017-11-14T06:54:39.586Z,32.97
2017-11-14T06:57:07.170Z,38.13
2017-11-14T06:59:35.474Z,59.30
2017-11-14T07:02:03.051Z,32.55
2017-11-14T07:04:30.594Z,26.33
2017-11-14T07:06:58.238Z,24.80
2017-11-14T07:09:26.544Z,27.00
2017-11-14T07:11:54.126Z,30.37
2017-11-14T07:14:21.723Z,26.35
2017-11-14T07:16:50.031Z,27.70
2017-11-14T07:19:17.630Z,27.67
2017-11-14T07:21:45.362Z,27.33
2017-11-14T07:24:12.907Z,25.90
2017-11-14T07:26:42.971Z,26.40
2017-11-14T07:29:10.519Z,26.98
2017-11-14T07:31:38.062Z,25.08
2017-11-14T07:34:05.638Z,26.30
2017-11-14T07:36:33.218Z,27.45
2017-11-14T07:39:00.762Z,26.87
2017-11-14T07:41:28.671Z,120.50
2017-11-14T07:43:58.414Z,31.48
2017-11-14T07:46:25.989Z,24.70
2017-11-14T07:48:53.529Z,25.95
2017-11-14T07:51:21.125Z,24.48
2017-11-14T07:53:48.657Z,24.70
2017-11-14T07:56:16.195Z,23.75
2017-11-14T07:58:44.642Z,23.08
2017-11-14T08:01:12.186Z,22.98
2017-11-14T08:03:39.757Z,24.15
2017-11-14T08:06:07.450Z,23.73
2017-11-14T08:08:35.750Z,23.70
2017-11-14T08:11:03.304Z,24.50
2017-11-14T08:13:30.964Z,24.87
2017-11-14T08:15:58.550Z,33.67
2017-11-14T08:18:26.853Z,29.00
2017-11-14T08:20:54.550Z,22.62
2017-11-14T08:23:22.850Z,24.67
2017-11-14T08:25:50.383Z,26.52
2017-11-14T08:28:18.762Z,25.75
2017-11-14T08:30:47.069Z,20.40
2017-11-14T08:33:14.606Z,19.87
2017-11-14T08:35:43.095Z,26.98
2017-11-14T08:38:11.405Z,21.05
2017-11-14T08:40:44.181Z,28.73
2017-11-14T08:43:11.754Z,31.77
2017-11-14T08:45:39.350Z,19.65
2017-11-14T08:48:07.043Z,31.25
2017-11-14T08:50:34.582Z,21.50
2017-11-14T08:53:02.903Z,43.20
2017-11-14T08:55:30.478Z,24.02
2017-11-14T08:57:58.017Z,24.12
2017-11-14T09:00:25.748Z,49.28
2017-11-14T09:02:54.058Z,20.65
2017-11-14T09:05:21.631Z,15.43
2017-11-14T09:07:49.175Z,15.15
2017-11-14T09:10:16.753Z,15.85
2017-11-14T09:12:44.304Z,16.15
2017-11-14T09:15:11.903Z,15.63
2017-11-14T09:17:39.445Z,15.55
2017-11-14T09:20:06.988Z,19.35
2017-11-14T09:22:34.644Z,16.30
2017-11-14T09:25:02.227Z,15.80
2017-11-14T09:27:29.764Z,16.25
2017-11-14T09:29:57.366Z,16.70
2017-11-14T09:32:24.908Z,14.48
2017-11-14T09:34:52.476Z,13.50
2017-11-14T09:37:20.111Z,14.63
2017-11-14T09:39:47.681Z,15.00
2017-11-14T09:42:15.358Z,14.48
2017-11-14T09:44:42.947Z,16.08
2017-11-14T09:47:11.253Z,14.15
2017-11-14T09:49:38.872Z,14.10
2017-11-14T09:52:06.419Z,14.85
2017-11-14T09:54:34.006Z,14.13
2017-11-14T09:57:02.322Z,14.85
2017-11-14T09:59:29.903Z,14.95
2017-11-14T10:01:57.438Z,17.58
2017-11-14T10:04:25.079Z,16.20
2017-11-14T10:06:53.382Z,16.10
2017-11-14T10:09:20.959Z,14.00
2017-11-14T10:11:48.496Z,14.55
2017-11-14T10:14:16.074Z,13.80
2017-11-14T10:16:43.618Z,14.90
2017-11-14T10:19:11.299Z,13.45
2017-11-14T10:21:38.942Z,14.57
2017-11-14T10:24:06.522Z,14.93
2017-11-14T10:26:34.058Z,25.30
2017-11-14T10:29:01.635Z,12.88
2017-11-14T10:31:29.175Z,15.18
2017-11-14T10:33:56.757Z,26.67
2017-11-14T10:36:24.294Z,10.60
2017-11-14T10:38:51.983Z,10.70
2017-11-14T10:41:19.518Z,10.57
2017-11-14T10:43:47.122Z,10.40
2017-11-14T10:46:14.656Z,10.10
2017-11-14T10:48:42.186Z,10.20
2017-11-14T10:51:10.821Z,10.45
2017-11-14T10:53:38.374Z,11.00
2017-11-14T10:56:05.923Z,10.00
2017-11-14T10:58:34.642Z,9.80
2017-11-14T11:01:02.198Z,10.10
2017-11-14T11:03:29.832Z,10.25
2017-11-14T11:05:57.390Z,9.50
2017-11-14T11:08:24.928Z,11.57
2017-11-14T11:10:52.504Z,10.40
2017-11-14T11:13:20.075Z,12.00
2017-11-14T11:15:47.611Z,21.35
2017-11-14T11:18:15.334Z,9.02
2017-11-14T11:20:42.887Z,9.32
2017-11-14T11:23:10.470Z,8.30
2017-11-14T11:25:38.775Z,8.98
2017-11-14T11:28:06.386Z,13.20
2017-11-14T11:30:33.936Z,9.50
2017-11-14T11:33:01.475Z,9.50
2017-11-14T11:35:29.361Z,7.85
2017-11-14T11:37:57.191Z,7.20
2017-11-14T11:40:24.731Z,7.12
2017-11-14T11:42:53.082Z,7.60
2017-11-14T11:45:20.662Z,7.70
2017-11-14T11:47:48.971Z,8.25
2017-11-14T11:50:16.509Z,7.50
2017-11-14T11:52:44.239Z,13.00
2017-11-14T11:55:11.787Z,8.95
2017-11-14T11:57:39.322Z,9.63
2017-11-14T12:00:06.948Z,50.45
2017-11-14T12:02:35.260Z,8.25
2017-11-14T12:05:02.798Z,6.50
2017-11-14T12:07:30.649Z,5.80
2017-11-14T12:09:58.950Z,7.53
2017-11-14T12:12:26.497Z,7.40
2017-11-14T12:14:54.075Z,6.20
2017-11-14T12:17:21.730Z,7.45
2017-11-14T12:19:49.297Z,5.97
2017-11-14T12:22:16.831Z,6.90
2017-11-14T12:24:44.904Z,5.00
2017-11-14T12:27:12.445Z,5.05
2017-11-14T12:29:39.986Z,5.60
2017-11-14T12:32:07.594Z,10.75
2017-11-14T12:34:35.907Z,7.82
2017-11-14T12:37:03.734Z,6.05
2017-11-14T12:39:32.073Z,6.35
2017-11-14T12:41:59.609Z,8.82
2017-11-14T12:44:27.226Z,6.40
2017-11-14T12:46:55.530Z,7.32
2017-11-14T12:49:23.071Z,5.55
2017-11-14T12:51:51.405Z,6.85
2017-11-14T12:54:18.940Z,6.03
2017-11-14T12:56:46.536Z,7.00
2017-11-14T12:59:14.407Z,5.15
2017-11-14T13:01:41.943Z,4.50
2017-11-14T13:04:09.479Z,5.30
2017-11-14T13:06:37.075Z,5.90
2017-11-14T13:09:04.602Z,4.90
2017-11-14T13:11:32.138Z,4.80
2017-11-14T13:14:00.586Z,5.93
2017-11-14T13:16:28.174Z,6.00
2017-11-14T13:18:56.470Z,4.68
2017-11-14T13:21:24.033Z,4.90
2017-11-14T13:23:51.637Z,4.28
2017-11-14T13:26:19.167Z,3.92
2017-11-14T13:28:46.692Z,3.97
2017-11-14T13:31:15.438Z,3.50
2017-11-14T13:33:42.976Z,2.78
2017-11-14T13:36:10.518Z,3.45
2017-11-14T13:38:38.155Z,2.92
2017-11-14T13:41:06.487Z,15.00
2017-11-14T13:43:34.039Z,4.18
2017-11-14T13:46:05.478Z,3.10
2017-11-14T13:48:33.010Z,3.10
2017-11-14T13:51:00.550Z,3.08
2017-11-14T13:53:28.118Z,2.58
2017-11-14T13:55:56.410Z,3.58
2017-11-14T13:58:23.978Z,3.20
2017-11-14T14:00:51.557Z,3.28
2017-11-14T14:03:19.082Z,2.67
2017-11-14T14:05:52.746Z,3.55
2017-11-14T14:08:20.316Z,3.50
2017-11-14T14:10:47.854Z,3.45
2017-11-14T14:13:15.437Z,4.93
2017-11-14T14:15:42.982Z,3.87
2017-11-14T14:18:10.582Z,3.10
2017-11-14T14:20:38.891Z,3.10
2017-11-14T14:23:06.427Z,3.15
2017-11-14T14:25:34.964Z,2.83
2017-11-14T14:28:02.534Z,3.00
2017-11-14T14:30:30.127Z,3.70
2017-11-14T14:32:58.431Z,3.25
2017-11-14T14:35:26.009Z,6.50
2017-11-14T14:37:53.973Z,3.90
2017-11-14T14:40:21.506Z,3.55
2017-11-14T14:42:49.051Z,4.35
2017-11-14T14:45:17.413Z,3.20
2017-11-14T14:47:44.944Z,4.75
2017-11-14T14:50:12.487Z,6.68
2017-11-14T14:52:40.150Z,4.35
2017-11-14T14:55:07.704Z,6.97
2017-11-14T14:57:35.244Z,4.07
2017-11-14T15:00:03.014Z,6.30
2017-11-14T15:02:31.839Z,4.57
2017-11-14T15:04:59.386Z,4.20
2017-11-14T15:07:26.959Z,4.03
2017-11-14T15:09:54.496Z,3.60
2017-11-14T15:12:22.070Z,4.10
2017-11-14T15:14:49.620Z,5.22
2017-11-14T15:17:17.235Z,3.65
2017-11-14T15:19:45.533Z,4.03
2017-11-14T15:22:13.074Z,4.85
2017-11-14T15:24:41.467Z,4.62
2017-11-14T15:27:09.763Z,4.55
2017-11-14T15:29:37.301Z,4.20
2017-11-14T15:32:05.697Z,34.20
2017-11-14T15:34:33.381Z,8.00
2017-11-14T15:37:01.054Z,22.20
2017-11-14T15:39:28.746Z,8.40
2017-11-14T15:41:56.291Z,10.05
2017-11-14T15:44:24.137Z,6.85
2017-11-14T15:46:51.690Z,5.05
2017-11-14T15:49:19.234Z,5.65
2017-11-14T15:51:46.851Z,6.87
2017-11-14T15:54:14.391Z,8.70
2017-11-14T15:56:41.927Z,8.48
2017-11-14T15:59:09.536Z,7.85
2017-11-14T16:01:37.084Z,5.93
2017-11-14T16:04:04.660Z,4.50
2017-11-14T16:06:32.576Z,4.32
2017-11-14T16:09:04.764Z,10.15
2017-11-14T16:11:32.339Z,8.20
2017-11-14T16:13:59.891Z,10.15
2017-11-14T16:16:27.644Z,5.60
2017-11-14T16:18:55.974Z,12.35
2017-11-14T16:21:24.448Z,7.37
2017-11-14T16:23:55.758Z,10.35
2017-11-14T16:26:25.222Z,9.68
2017-11-14T16:28:56.753Z,7.22
2017-11-14T16:31:25.216Z,6.28
2017-11-14T16:33:53.657Z,7.00
2017-11-14T16:36:22.158Z,6.80
2017-11-14T16:38:50.124Z,7.57
2017-11-14T16:41:18.926Z,6.15
2017-11-14T16:43:46.739Z,6.72
2017-11-14T16:46:14.647Z,6.47
2017-11-14T16:48:42.238Z,5.78
2017-11-14T16:51:10.718Z,6.57
2017-11-14T16:53:38.339Z,7.00
2017-11-14T16:56:05.961Z,8.85
2017-11-14T16:58:33.490Z,8.93
2017-11-14T17:03:51.992Z,12.07
2017-11-14T17:06:19.533Z,16.20
2017-11-14T17:08:47.399Z,11.85
2017-11-14T17:11:14.966Z,11.00
2017-11-14T17:13:42.503Z,13.20
2017-11-14T17:16:12.172Z,9.15
2017-11-14T17:18:44.205Z,11.60
2017-11-14T17:21:11.748Z,7.80
2017-11-14T17:23:39.885Z,10.50
2017-11-14T17:26:07.463Z,6.78
2017-11-14T17:28:35.867Z,6.95
2017-11-14T17:31:04.874Z,7.00
2017-11-14T17:33:32.459Z,6.25
2017-11-14T17:36:00.190Z,8.65
2017-11-14T17:38:27.876Z,8.00
2017-11-14T17:40:56.218Z,8.70
2017-11-14T17:43:23.894Z,9.77
2017-11-14T17:45:51.439Z,6.47
2017-11-14T17:48:18.982Z,11.40
2017-11-14T17:50:46.698Z,7.43
2017-11-14T17:53:14.283Z,5.60
2017-11-14T17:55:41.991Z,5.55
2017-11-14T17:58:09.531Z,6.20
2017-11-14T18:00:37.075Z,7.62
2017-11-14T18:03:04.650Z,6.45
2017-11-14T18:05:33.527Z,7.40
2017-11-14T18:08:01.080Z,7.45
2017-11-14T18:10:28.624Z,15.05
2017-11-14T18:12:57.402Z,9.18
2017-11-14T18:15:25.703Z,7.80
2017-11-14T18:17:53.241Z,8.90
2017-11-14T18:20:21.614Z,8.98
2017-11-14T18:22:49.926Z,19.90
2017-11-14T18:25:17.464Z,12.90
2017-11-14T18:27:45.244Z,13.85
2017-11-14T18:30:12.826Z,13.27
2017-11-14T18:32:40.370Z,9.88
2017-11-14T18:35:07.909Z,10.00
2017-11-14T18:37:36.947Z,8.07
2017-11-14T18:40:04.486Z,8.70
2017-11-14T18:42:32.146Z,8.05
2017-11-14T18:44:59.690Z,13.77
2017-11-14T18:47:27.270Z,16.90
2017-11-14T18:49:54.821Z,9.90
2017-11-14T18:52:23.162Z,8.63
2017-11-14T18:54:51.531Z,9.35
2017-11-14T18:57:19.061Z,8.45
2017-11-14T18:59:46.601Z,9.80
2017-11-14T19:02:14.286Z,8.40
2017-11-14T19:04:41.814Z,8.43
2017-11-14T19:07:09.395Z,9.07
2017-11-14T19:09:36.939Z,9.05
2017-11-14T19:12:04.526Z,9.90
2017-11-14T19:14:32.071Z,11.90
2017-11-14T19:16:59.610Z,12.82
2017-11-14T19:19:27.200Z,12.07
2017-11-14T19:22:00.906Z,10.63
2017-11-14T19:24:28.503Z,10.88
2017-11-14T19:26:56.815Z,10.80
2017-11-14T19:29:24.389Z,10.90
2017-11-14T19:31:51.927Z,10.75
2017-11-14T19:34:19.517Z,10.82
2017-11-14T19:36:47.091Z,11.65
2017-11-14T19:39:14.910Z,11.30
2017-11-14T19:41:42.521Z,12.77
2017-11-14T19:44:10.072Z,12.80
2017-11-14T19:46:37.615Z,12.75
2017-11-14T19:49:05.234Z,12.98
2017-11-14T19:51:33.543Z,11.82
2017-11-14T19:54:01.112Z,12.80
2017-11-14T19:56:28.717Z,15.43
2017-11-14T19:58:56.258Z,13.80
2017-11-14T20:01:23.843Z,13.98
2017-11-14T20:03:51.676Z,14.77
2017-11-14T20:06:19.259Z,18.23
2017-11-14T20:08:46.797Z,19.37
2017-11-14T20:11:14.379Z,15.35
2017-11-14T20:13:41.960Z,14.85
2017-11-14T20:16:10.312Z,14.38
2017-11-14T20:18:39.181Z,16.48
2017-11-14T20:21:06.719Z,15.45
2017-11-14T20:23:35.028Z,14.87
2017-11-14T20:26:02.614Z,15.27
2017-11-14T20:28:30.156Z,15.35
2017-11-14T20:31:03.031Z,16.55
2017-11-14T20:33:30.570Z,16.60
2017-11-14T20:35:58.116Z,17.40
2017-11-14T20:38:31.023Z,17.23
2017-11-14T20:40:58.606Z,17.62
2017-11-14T20:43:26.146Z,18.65
2017-11-14T20:45:53.773Z,17.50
2017-11-14T20:48:21.315Z,17.40
2017-11-14T20:50:49.619Z,15.75
2017-11-14T20:53:17.286Z,17.15
2017-11-14T20:55:44.822Z,17.45
2017-11-14T20:58:13.225Z,18.25
2017-11-14T21:00:40.768Z,16.20
2017-11-14T21:03:09.091Z,17.50
2017-11-14T21:05:36.727Z,17.10
2017-11-14T21:08:04.267Z,18.65
2017-11-14T21:10:32.725Z,19.52
2017-11-14T21:13:00.261Z,24.45
2017-11-14T21:15:27.883Z,22.98
2017-11-14T21:17:55.422Z,51.83
2017-11-14T21:20:24.254Z,34.85
2017-11-14T21:22:51.802Z,30.90
2017-11-14T21:25:19.338Z,30.20
2017-11-14T21:27:47.749Z,22.10
2017-11-14T21:30:15.373Z,116.40
2017-11-14T21:32:43.731Z,80.10
2017-11-14T21:35:18.728Z,119.62
2017-11-14T21:37:46.562Z,24.15
2017-11-14T21:40:14.914Z,22.62
2017-11-14T21:42:42.446Z,32.70
2017-11-14T21:45:10.250Z,33.17
2017-11-14T21:47:38.558Z,20.33
2017-11-14T21:50:06.107Z,37.33
2017-11-14T21:52:33.685Z,33.80
2017-11-14T21:55:01.275Z,34.50
2017-11-14T21:57:28.878Z,40.00
2017-11-14T21:59:57.688Z,47.05
2017-11-14T22:02:25.239Z,47.15
2017-11-14T22:04:52.836Z,29.70
2017-11-14T22:07:20.388Z,21.10
2017-11-14T22:09:47.939Z,22.55
2017-11-14T22:12:15.543Z,20.98
2017-11-14T22:14:43.199Z,41.78
2017-11-14T22:17:10.782Z,31.60
2017-11-14T22:19:39.172Z,25.15
2017-11-14T22:22:07.521Z,27.62
2017-11-14T22:24:35.104Z,26.83
2017-11-14T22:27:03.446Z,45.17
2017-11-14T22:29:30.985Z,24.63
2017-11-14T22:31:58.567Z,24.90
2017-11-14T22:34:26.296Z,21.77
2017-11-14T22:36:53.840Z,59.38
2017-11-14T22:39:21.737Z,35.67
2017-11-14T22:41:49.287Z,26.45
2017-11-14T22:44:17.283Z,25.48
2017-11-14T22:46:44.818Z,25.30
2017-11-14T22:49:13.423Z,29.48
2017-11-14T22:51:41.010Z,27.87
2017-11-14T22:54:08.592Z,23.65
2017-11-14T22:56:36.890Z,23.62
2017-11-14T22:59:04.474Z,23.67
2017-11-14T23:01:32.188Z,24.27
2017-11-14T23:04:00.526Z,23.35
2017-11-14T23:06:28.082Z,21.95
2017-11-14T23:08:55.659Z,22.00
2017-11-14T23:11:23.272Z,23.92
2017-11-14T23:13:50.811Z,21.33
2017-11-14T23:16:19.154Z,21.70
2017-11-14T23:18:46.694Z,21.67
2017-11-14T23:21:14.287Z,20.60
2017-11-14T23:23:41.839Z,21.30
2017-11-14T23:26:09.382Z,20.88
2017-11-14T23:28:36.963Z,21.37
2017-11-14T23:31:04.507Z,20.50
2017-11-14T23:33:32.089Z,21.23
2017-11-14T23:35:59.626Z,21.20
2017-11-14T23:38:27.354Z,21.52
2017-11-14T23:40:55.032Z,21.20
2017-11-14T23:43:22.614Z,21.77
2017-11-14T23:45:50.158Z,23.10
2017-11-14T23:48:17.751Z,21.10
2017-11-14T23:50:45.290Z,21.67
2017-11-14T23:53:12.828Z,20.90
2017-11-14T23:55:40.481Z,22.10
2017-11-14T23:58:08.014Z,19.55
